sensor_id;sensor_type;location;lat;lon;timestamp;P1;durP1;ratioP1;P2;durP2;ratioP2
23506;SDS011;11930;53.076;18.250;2022-08-21T00:02:04;12.30;;;6.60;;
23506;SDS011;11930;53.076;18.250;2022-08-21T00:04:39;11.35;;;5.97;;
23506;SDS011;11930;53.076;18.250;2022-08-21T00:07:06;11.88;;;6.63;;
23506;SDS011;11930;53.076;18.250;2022-08-21T00:09:31;12.65;;;6.47;;
23506;SDS011;11930;53.076;18.250;2022-08-21T00:11:57;15.25;;;6.85;;
23506;SDS011;11930;53.076;18.250;2022-08-21T00:14:24;14.35;;;6.90;;
23506;SDS011;11930;53.076;18.250;2022-08-21T00:16:50;10.88;;;6.63;;
23506;SDS011;11930;53.076;18.250;2022-08-21T00:19:16;11.32;;;6.40;;
23506;SDS011;11930;53.076;18.250;2022-08-21T00:21:42;13.07;;;6.18;;
23506;SDS011;11930;53.076;18.250;2022-08-21T00:24:08;12.77;;;6.65;;
23506;SDS011;11930;53.076;18.250;2022-08-21T00:26:34;13.45;;;6.40;;
23506;SDS011;11930;53.076;18.250;2022-08-21T00:29:00;13.48;;;6.40;;
23506;SDS011;11930;53.076;18.250;2022-08-21T00:31:27;13.75;;;6.32;;
23506;SDS011;11930;53.076;18.250;2022-08-21T00:33:53;12.90;;;6.85;;
23506;SDS011;11930;53.076;18.250;2022-08-21T00:36:19;10.48;;;6.55;;
23506;SDS011;11930;53.076;18.250;2022-08-21T00:38:45;13.88;;;6.85;;
23506;SDS011;11930;53.076;18.250;2022-08-21T00:41:11;15.38;;;7.00;;
23506;SDS011;11930;53.076;18.250;2022-08-21T00:43:38;12.90;;;6.70;;
23506;SDS011;11930;53.076;18.250;2022-08-21T00:46:05;16.50;;;6.75;;
23506;SDS011;11930;53.076;18.250;2022-08-21T00:48:32;10.90;;;7.13;;
23506;SDS011;11930;53.076;18.250;2022-08-21T00:51:04;11.63;;;7.03;;
23506;SDS011;11930;53.076;18.250;2022-08-21T00:53:37;11.90;;;7.10;;
23506;SDS011;11930;53.076;18.250;2022-08-21T00:56:05;14.80;;;7.70;;
23506;SDS011;11930;53.076;18.250;2022-08-21T00:58:34;15.82;;;7.57;;
23506;SDS011;11930;53.076;18.250;2022-08-21T01:01:02;10.95;;;7.13;;
23506;SDS011;11930;53.076;18.250;2022-08-21T01:03:31;16.88;;;7.60;;
23506;SDS011;11930;53.076;18.250;2022-08-21T01:05:57;14.18;;;7.28;;
23506;SDS011;11930;53.076;18.250;2022-08-21T01:08:23;11.98;;;6.70;;
23506;SDS011;11930;53.076;18.250;2022-08-21T01:10:50;14.35;;;7.00;;
23506;SDS011;11930;53.076;18.250;2022-08-21T01:13:18;17.65;;;8.00;;
23506;SDS011;11930;53.076;18.250;2022-08-21T01:15:46;21.55;;;7.72;;
23506;SDS011;11930;53.076;18.250;2022-08-21T01:18:15;13.02;;;6.90;;
23506;SDS011;11930;53.076;18.250;2022-08-21T01:20:44;13.45;;;6.90;;
23506;SDS011;11930;53.076;18.250;2022-08-21T01:23:22;14.05;;;6.93;;
23506;SDS011;11930;53.076;18.250;2022-08-21T01:25:48;12.35;;;6.78;;
23506;SDS011;11930;53.076;18.250;2022-08-21T01:28:15;11.55;;;6.30;;
23506;SDS011;11930;53.076;18.250;2022-08-21T01:30:42;11.88;;;6.38;;
23506;SDS011;11930;53.076;18.250;2022-08-21T01:33:09;13.15;;;6.53;;
23506;SDS011;11930;53.076;18.250;2022-08-21T01:35:35;15.10;;;6.63;;
23506;SDS011;11930;53.076;18.250;2022-08-21T01:38:02;11.02;;;6.13;;
23506;SDS011;11930;53.076;18.250;2022-08-21T01:40:28;10.77;;;6.40;;
23506;SDS011;11930;53.076;18.250;2022-08-21T01:42:55;9.82;;;6.65;;
23506;SDS011;11930;53.076;18.250;2022-08-21T01:45:21;11.52;;;6.78;;
23506;SDS011;11930;53.076;18.250;2022-08-21T01:47:47;12.07;;;6.38;;
23506;SDS011;11930;53.076;18.250;2022-08-21T01:50:14;13.73;;;6.63;;
23506;SDS011;11930;53.076;18.250;2022-08-21T01:52:42;10.88;;;6.47;;
23506;SDS011;11930;53.076;18.250;2022-08-21T01:55:09;13.10;;;6.65;;
23506;SDS011;11930;53.076;18.250;2022-08-21T01:57:35;14.75;;;6.32;;
23506;SDS011;11930;53.076;18.250;2022-08-21T02:00:04;11.75;;;6.50;;
23506;SDS011;11930;53.076;18.250;2022-08-21T02:02:37;10.10;;;5.57;;
23506;SDS011;11930;53.076;18.250;2022-08-21T02:05:04;12.15;;;6.20;;
23506;SDS011;11930;53.076;18.250;2022-08-21T02:07:42;15.07;;;7.05;;
23506;SDS011;11930;53.076;18.250;2022-08-21T02:10:19;12.35;;;6.53;;
23506;SDS011;11930;53.076;18.250;2022-08-21T02:12:52;12.02;;;6.63;;
23506;SDS011;11930;53.076;18.250;2022-08-21T02:15:18;11.52;;;6.18;;
23506;SDS011;11930;53.076;18.250;2022-08-21T02:17:48;11.80;;;7.22;;
23506;SDS011;11930;53.076;18.250;2022-08-21T02:20:18;13.18;;;7.60;;
23506;SDS011;11930;53.076;18.250;2022-08-21T02:22:49;13.55;;;7.85;;
23506;SDS011;11930;53.076;18.250;2022-08-21T02:25:16;12.82;;;7.57;;
23506;SDS011;11930;53.076;18.250;2022-08-21T02:27:44;15.95;;;8.07;;
23506;SDS011;11930;53.076;18.250;2022-08-21T02:30:20;12.65;;;8.13;;
23506;SDS011;11930;53.076;18.250;2022-08-21T02:32:49;13.90;;;8.27;;
23506;SDS011;11930;53.076;18.250;2022-08-21T02:35:15;15.25;;;7.72;;
23506;SDS011;11930;53.076;18.250;2022-08-21T02:40:12;9.82;;;7.88;;
23506;SDS011;11930;53.076;18.250;2022-08-21T02:42:39;15.70;;;8.15;;
23506;SDS011;11930;53.076;18.250;2022-08-21T02:45:06;13.15;;;8.20;;
23506;SDS011;11930;53.076;18.250;2022-08-21T02:47:32;14.27;;;8.02;;
23506;SDS011;11930;53.076;18.250;2022-08-21T02:49:58;12.95;;;7.65;;
23506;SDS011;11930;53.076;18.250;2022-08-21T02:52:24;16.00;;;8.65;;
23506;SDS011;11930;53.076;18.250;2022-08-21T02:54:50;13.95;;;8.70;;
23506;SDS011;11930;53.076;18.250;2022-08-21T02:57:16;13.38;;;8.05;;
23506;SDS011;11930;53.076;18.250;2022-08-21T02:59:42;12.18;;;8.70;;
23506;SDS011;11930;53.076;18.250;2022-08-21T03:02:08;18.33;;;9.77;;
23506;SDS011;11930;53.076;18.250;2022-08-21T03:04:35;16.95;;;9.52;;
23506;SDS011;11930;53.076;18.250;2022-08-21T03:07:01;16.67;;;10.02;;
23506;SDS011;11930;53.076;18.250;2022-08-21T03:09:28;18.38;;;9.73;;
23506;SDS011;11930;53.076;18.250;2022-08-21T03:11:54;16.55;;;9.75;;
23506;SDS011;11930;53.076;18.250;2022-08-21T03:14:20;17.23;;;9.25;;
23506;SDS011;11930;53.076;18.250;2022-08-21T03:16:46;16.08;;;8.50;;
23506;SDS011;11930;53.076;18.250;2022-08-21T03:19:12;16.35;;;9.38;;
23506;SDS011;11930;53.076;18.250;2022-08-21T03:21:38;15.35;;;9.43;;
23506;SDS011;11930;53.076;18.250;2022-08-21T03:24:04;14.23;;;9.77;;
23506;SDS011;11930;53.076;18.250;2022-08-21T03:26:30;15.05;;;9.88;;
23506;SDS011;11930;53.076;18.250;2022-08-21T03:28:56;16.73;;;10.43;;
23506;SDS011;11930;53.076;18.250;2022-08-21T03:31:23;20.25;;;10.50;;
23506;SDS011;11930;53.076;18.250;2022-08-21T03:33:52;17.13;;;10.60;;
23506;SDS011;11930;53.076;18.250;2022-08-21T03:36:20;16.42;;;11.27;;
23506;SDS011;11930;53.076;18.250;2022-08-21T03:38:46;16.27;;;10.73;;
23506;SDS011;11930;53.076;18.250;2022-08-21T03:41:12;16.08;;;10.68;;
23506;SDS011;11930;53.076;18.250;2022-08-21T03:43:38;22.05;;;11.27;;
23506;SDS011;11930;53.076;18.250;2022-08-21T03:46:04;17.33;;;11.02;;
23506;SDS011;11930;53.076;18.250;2022-08-21T03:48:32;18.33;;;11.55;;
23506;SDS011;11930;53.076;18.250;2022-08-21T03:50:59;18.83;;;11.35;;
23506;SDS011;11930;53.076;18.250;2022-08-21T03:53:25;17.20;;;10.93;;
23506;SDS011;11930;53.076;18.250;2022-08-21T03:55:51;18.08;;;11.98;;
23506;SDS011;11930;53.076;18.250;2022-08-21T03:58:19;21.27;;;12.27;;
23506;SDS011;11930;53.076;18.250;2022-08-21T04:00:47;19.00;;;11.07;;
23506;SDS011;11930;53.076;18.250;2022-08-21T04:03:16;17.98;;;11.45;;
23506;SDS011;11930;53.076;18.250;2022-08-21T04:05:43;18.13;;;10.75;;
23506;SDS011;11930;53.076;18.250;2022-08-21T04:08:11;18.88;;;11.00;;
23506;SDS011;11930;53.076;18.250;2022-08-21T04:10:38;15.88;;;11.32;;
23506;SDS011;11930;53.076;18.250;2022-08-21T04:13:05;20.25;;;12.05;;
23506;SDS011;11930;53.076;18.250;2022-08-21T04:15:33;18.17;;;12.20;;
23506;SDS011;11930;53.076;18.250;2022-08-21T04:18:00;19.00;;;11.80;;
23506;SDS011;11930;53.076;18.250;2022-08-21T04:20:26;17.92;;;13.45;;
23506;SDS011;11930;53.076;18.250;2022-08-21T04:22:53;22.38;;;13.95;;
23506;SDS011;11930;53.076;18.250;2022-08-21T04:25:20;21.65;;;13.85;;
23506;SDS011;11930;53.076;18.250;2022-08-21T04:27:47;23.98;;;14.95;;
23506;SDS011;11930;53.076;18.250;2022-08-21T04:30:14;21.45;;;13.60;;
23506;SDS011;11930;53.076;18.250;2022-08-21T04:32:42;23.13;;;14.63;;
23506;SDS011;11930;53.076;18.250;2022-08-21T04:35:13;22.08;;;14.07;;
23506;SDS011;11930;53.076;18.250;2022-08-21T04:37:40;19.88;;;13.00;;
23506;SDS011;11930;53.076;18.250;2022-08-21T04:40:06;20.70;;;12.75;;
23506;SDS011;11930;53.076;18.250;2022-08-21T04:42:40;19.45;;;12.88;;
23506;SDS011;11930;53.076;18.250;2022-08-21T04:45:30;23.80;;;13.88;;
23506;SDS011;11930;53.076;18.250;2022-08-21T04:48:09;17.50;;;12.85;;
23506;SDS011;11930;53.076;18.250;2022-08-21T04:51:00;20.15;;;13.65;;
23506;SDS011;11930;53.076;18.250;2022-08-21T04:53:38;22.27;;;14.10;;
23506;SDS011;11930;53.076;18.250;2022-08-21T04:59:02;23.38;;;15.40;;
23506;SDS011;11930;53.076;18.250;2022-08-21T05:01:36;24.55;;;15.80;;
23506;SDS011;11930;53.076;18.250;2022-08-21T05:04:08;27.40;;;17.30;;
23506;SDS011;11930;53.076;18.250;2022-08-21T05:06:38;27.60;;;17.92;;
23506;SDS011;11930;53.076;18.250;2022-08-21T05:09:09;24.30;;;17.38;;
23506;SDS011;11930;53.076;18.250;2022-08-21T05:11:39;32.88;;;19.02;;
23506;SDS011;11930;53.076;18.250;2022-08-21T05:14:07;28.08;;;18.25;;
23506;SDS011;11930;53.076;18.250;2022-08-21T05:16:33;28.33;;;17.40;;
23506;SDS011;11930;53.076;18.250;2022-08-21T05:18:59;30.52;;;17.67;;
23506;SDS011;11930;53.076;18.250;2022-08-21T05:21:25;30.45;;;18.05;;
23506;SDS011;11930;53.076;18.250;2022-08-21T05:23:51;25.38;;;16.58;;
23506;SDS011;11930;53.076;18.250;2022-08-21T05:26:20;27.38;;;17.05;;
23506;SDS011;11930;53.076;18.250;2022-08-21T05:28:46;26.05;;;17.52;;
23506;SDS011;11930;53.076;18.250;2022-08-21T05:31:12;29.70;;;17.65;;
23506;SDS011;11930;53.076;18.250;2022-08-21T05:33:39;28.75;;;19.05;;
23506;SDS011;11930;53.076;18.250;2022-08-21T05:36:05;30.90;;;20.10;;
23506;SDS011;11930;53.076;18.250;2022-08-21T05:38:31;28.40;;;19.38;;
23506;SDS011;11930;53.076;18.250;2022-08-21T05:40:57;32.10;;;20.55;;
23506;SDS011;11930;53.076;18.250;2022-08-21T05:43:23;29.27;;;19.42;;
23506;SDS011;11930;53.076;18.250;2022-08-21T05:45:49;28.85;;;19.00;;
23506;SDS011;11930;53.076;18.250;2022-08-21T05:48:17;31.77;;;20.30;;
23506;SDS011;11930;53.076;18.250;2022-08-21T05:50:49;30.95;;;20.42;;
23506;SDS011;11930;53.076;18.250;2022-08-21T05:53:17;34.13;;;21.23;;
23506;SDS011;11930;53.076;18.250;2022-08-21T05:55:45;33.10;;;21.88;;
23506;SDS011;11930;53.076;18.250;2022-08-21T05:58:12;30.27;;;21.33;;
23506;SDS011;11930;53.076;18.250;2022-08-21T06:00:39;36.75;;;22.80;;
23506;SDS011;11930;53.076;18.250;2022-08-21T06:03:09;30.52;;;19.48;;
23506;SDS011;11930;53.076;18.250;2022-08-21T06:05:37;30.20;;;19.08;;
23506;SDS011;11930;53.076;18.250;2022-08-21T06:08:03;29.65;;;19.48;;
23506;SDS011;11930;53.076;18.250;2022-08-21T06:10:29;32.30;;;19.85;;
23506;SDS011;11930;53.076;18.250;2022-08-21T06:12:56;29.40;;;19.15;;
23506;SDS011;11930;53.076;18.250;2022-08-21T06:15:22;35.33;;;22.33;;
23506;SDS011;11930;53.076;18.250;2022-08-21T06:17:51;37.25;;;22.83;;
23506;SDS011;11930;53.076;18.250;2022-08-21T06:20:18;35.22;;;22.50;;
23506;SDS011;11930;53.076;18.250;2022-08-21T06:22:47;36.28;;;23.08;;
23506;SDS011;11930;53.076;18.250;2022-08-21T06:25:14;35.42;;;23.30;;
23506;SDS011;11930;53.076;18.250;2022-08-21T06:28:10;32.55;;;20.75;;
23506;SDS011;11930;53.076;18.250;2022-08-21T06:30:39;31.38;;;20.08;;
23506;SDS011;11930;53.076;18.250;2022-08-21T06:33:05;28.70;;;19.10;;
23506;SDS011;11930;53.076;18.250;2022-08-21T06:35:32;29.55;;;18.48;;
23506;SDS011;11930;53.076;18.250;2022-08-21T06:38:00;23.77;;;17.63;;
23506;SDS011;11930;53.076;18.250;2022-08-21T06:40:27;24.42;;;17.30;;
23506;SDS011;11930;53.076;18.250;2022-08-21T06:43:05;25.40;;;18.27;;
23506;SDS011;11930;53.076;18.250;2022-08-21T06:45:35;23.25;;;17.33;;
23506;SDS011;11930;53.076;18.250;2022-08-21T06:48:03;24.02;;;16.63;;
23506;SDS011;11930;53.076;18.250;2022-08-21T06:50:54;25.10;;;16.92;;
23506;SDS011;11930;53.076;18.250;2022-08-21T06:56:37;22.02;;;16.55;;
23506;SDS011;11930;53.076;18.250;2022-08-21T06:59:04;26.15;;;16.10;;
23506;SDS011;11930;53.076;18.250;2022-08-21T07:01:31;23.38;;;16.10;;
23506;SDS011;11930;53.076;18.250;2022-08-21T07:03:57;23.85;;;16.10;;
23506;SDS011;11930;53.076;18.250;2022-08-21T07:06:24;23.50;;;16.45;;
23506;SDS011;11930;53.076;18.250;2022-08-21T07:08:53;23.30;;;17.02;;
23506;SDS011;11930;53.076;18.250;2022-08-21T07:11:27;22.98;;;16.42;;
23506;SDS011;11930;53.076;18.250;2022-08-21T07:13:59;21.10;;;16.38;;
23506;SDS011;11930;53.076;18.250;2022-08-21T07:16:25;23.55;;;16.35;;
23506;SDS011;11930;53.076;18.250;2022-08-21T07:18:52;22.55;;;16.98;;
23506;SDS011;11930;53.076;18.250;2022-08-21T07:21:41;24.25;;;16.85;;
23506;SDS011;11930;53.076;18.250;2022-08-21T07:24:40;24.92;;;17.02;;
23506;SDS011;11930;53.076;18.250;2022-08-21T07:27:21;20.88;;;15.85;;
23506;SDS011;11930;53.076;18.250;2022-08-21T07:30:34;21.95;;;15.93;;
23506;SDS011;11930;53.076;18.250;2022-08-21T07:33:03;17.83;;;14.10;;
23506;SDS011;11930;53.076;18.250;2022-08-21T07:35:59;13.52;;;10.25;;
23506;SDS011;11930;53.076;18.250;2022-08-21T07:38:30;13.65;;;10.05;;
23506;SDS011;11930;53.076;18.250;2022-08-21T07:40:56;14.07;;;9.32;;
23506;SDS011;11930;53.076;18.250;2022-08-21T07:43:24;10.90;;;8.18;;
23506;SDS011;11930;53.076;18.250;2022-08-21T07:45:51;10.73;;;7.90;;
23506;SDS011;11930;53.076;18.250;2022-08-21T07:48:19;11.20;;;8.73;;
23506;SDS011;11930;53.076;18.250;2022-08-21T07:50:51;11.90;;;8.40;;
23506;SDS011;11930;53.076;18.250;2022-08-21T07:53:17;10.93;;;8.82;;
23506;SDS011;11930;53.076;18.250;2022-08-21T07:55:43;13.50;;;9.10;;
23506;SDS011;11930;53.076;18.250;2022-08-21T07:58:09;13.40;;;9.65;;
23506;SDS011;11930;53.076;18.250;2022-08-21T08:00:35;14.25;;;9.82;;
23506;SDS011;11930;53.076;18.250;2022-08-21T08:03:04;13.20;;;10.20;;
23506;SDS011;11930;53.076;18.250;2022-08-21T08:05:30;13.15;;;10.13;;
23506;SDS011;11930;53.076;18.250;2022-08-21T08:07:57;14.60;;;10.18;;
23506;SDS011;11930;53.076;18.250;2022-08-21T08:10:24;12.63;;;10.57;;
23506;SDS011;11930;53.076;18.250;2022-08-21T08:12:52;14.88;;;10.15;;
23506;SDS011;11930;53.076;18.250;2022-08-21T08:15:23;13.13;;;10.75;;
23506;SDS011;11930;53.076;18.250;2022-08-21T08:17:53;15.43;;;11.02;;
23506;SDS011;11930;53.076;18.250;2022-08-21T08:20:21;13.32;;;9.82;;
23506;SDS011;11930;53.076;18.250;2022-08-21T08:22:48;12.20;;;9.88;;
23506;SDS011;11930;53.076;18.250;2022-08-21T08:25:17;12.98;;;9.93;;
23506;SDS011;11930;53.076;18.250;2022-08-21T08:27:44;14.30;;;8.95;;
23506;SDS011;11930;53.076;18.250;2022-08-21T08:30:11;11.88;;;8.80;;
23506;SDS011;11930;53.076;18.250;2022-08-21T08:32:39;11.85;;;9.18;;
23506;SDS011;11930;53.076;18.250;2022-08-21T08:35:21;11.45;;;8.32;;
23506;SDS011;11930;53.076;18.250;2022-08-21T08:37:48;10.52;;;8.45;;
23506;SDS011;11930;53.076;18.250;2022-08-21T08:43:12;13.13;;;8.60;;
23506;SDS011;11930;53.076;18.250;2022-08-21T08:45:39;10.55;;;8.48;;
23506;SDS011;11930;53.076;18.250;2022-08-21T08:48:10;9.95;;;7.40;;
23506;SDS011;11930;53.076;18.250;2022-08-21T08:50:41;11.60;;;8.40;;
23506;SDS011;11930;53.076;18.250;2022-08-21T08:53:22;10.75;;;8.32;;
23506;SDS011;11930;53.076;18.250;2022-08-21T08:55:50;10.43;;;8.00;;
23506;SDS011;11930;53.076;18.250;2022-08-21T08:58:31;12.18;;;8.15;;
23506;SDS011;11930;53.076;18.250;2022-08-21T09:01:03;10.52;;;7.97;;
23506;SDS011;11930;53.076;18.250;2022-08-21T09:03:37;11.80;;;8.10;;
23506;SDS011;11930;53.076;18.250;2022-08-21T09:06:21;9.73;;;7.68;;
23506;SDS011;11930;53.076;18.250;2022-08-21T09:11:57;10.48;;;8.13;;
23506;SDS011;11930;53.076;18.250;2022-08-21T09:17:19;9.52;;;7.70;;
23506;SDS011;11930;53.076;18.250;2022-08-21T09:20:01;10.50;;;8.02;;
23506;SDS011;11930;53.076;18.250;2022-08-21T09:27:37;9.50;;;8.50;;
23506;SDS011;11930;53.076;18.250;2022-08-21T09:30:04;11.75;;;9.57;;
23506;SDS011;11930;53.076;18.250;2022-08-21T09:32:36;10.35;;;8.30;;
23506;SDS011;11930;53.076;18.250;2022-08-21T09:35:17;11.85;;;9.38;;
23506;SDS011;11930;53.076;18.250;2022-08-21T09:46:49;10.30;;;7.63;;
23506;SDS011;11930;53.076;18.250;2022-08-21T09:48:49;11.75;;;7.47;;
23506;SDS011;11930;53.076;18.250;2022-08-21T09:51:18;9.82;;;7.40;;
23506;SDS011;11930;53.076;18.250;2022-08-21T09:53:46;8.63;;;7.18;;
23506;SDS011;11930;53.076;18.250;2022-08-21T09:56:26;10.63;;;9.10;;
23506;SDS011;11930;53.076;18.250;2022-08-21T10:01:58;22.38;;;16.83;;
23506;SDS011;11930;53.076;18.250;2022-08-21T10:04:28;19.67;;;16.30;;
23506;SDS011;11930;53.076;18.250;2022-08-21T10:07:09;10.20;;;8.05;;
23506;SDS011;11930;53.076;18.250;2022-08-21T10:09:37;13.88;;;11.57;;
23506;SDS011;11930;53.076;18.250;2022-08-21T10:12:10;14.25;;;11.35;;
23506;SDS011;11930;53.076;18.250;2022-08-21T10:17:44;18.02;;;16.00;;
23506;SDS011;11930;53.076;18.250;2022-08-21T10:38:59;18.52;;;15.35;;
23506;SDS011;11930;53.076;18.250;2022-08-21T10:44:09;9.30;;;6.97;;
23506;SDS011;11930;53.076;18.250;2022-08-21T10:49:45;10.48;;;7.03;;
23506;SDS011;11930;53.076;18.250;2022-08-21T10:57:46;8.85;;;6.63;;
23506;SDS011;11930;53.076;18.250;2022-08-21T11:00:24;8.05;;;6.55;;
23506;SDS011;11930;53.076;18.250;2022-08-21T11:02:57;10.15;;;6.60;;
23506;SDS011;11930;53.076;18.250;2022-08-21T11:08:10;8.85;;;6.70;;
23506;SDS011;11930;53.076;18.250;2022-08-21T11:10:48;8.38;;;6.70;;
23506;SDS011;11930;53.076;18.250;2022-08-21T11:16:00;7.25;;;5.90;;
23506;SDS011;11930;53.076;18.250;2022-08-21T11:18:33;8.77;;;6.63;;
23506;SDS011;11930;53.076;18.250;2022-08-21T11:23:54;9.02;;;6.07;;
23506;SDS011;11930;53.076;18.250;2022-08-21T11:26:34;9.65;;;5.93;;
23506;SDS011;11930;53.076;18.250;2022-08-21T11:29:13;6.82;;;6.05;;
23506;SDS011;11930;53.076;18.250;2022-08-21T11:32:01;8.68;;;6.18;;
23506;SDS011;11930;53.076;18.250;2022-08-21T11:34:58;6.78;;;5.78;;
23506;SDS011;11930;53.076;18.250;2022-08-21T11:37:45;7.95;;;6.22;;
23506;SDS011;11930;53.076;18.250;2022-08-21T11:46:33;6.82;;;5.30;;
23506;SDS011;11930;53.076;18.250;2022-08-21T11:54:57;5.60;;;4.65;;
23506;SDS011;11930;53.076;18.250;2022-08-21T11:57:34;6.53;;;4.88;;
23506;SDS011;11930;53.076;18.250;2022-08-21T12:00:07;8.45;;;4.72;;
23506;SDS011;11930;53.076;18.250;2022-08-21T12:02:43;8.63;;;4.68;;
23506;SDS011;11930;53.076;18.250;2022-08-21T12:05:23;7.28;;;4.88;;
23506;SDS011;11930;53.076;18.250;2022-08-21T12:08:13;5.82;;;4.70;;
23506;SDS011;11930;53.076;18.250;2022-08-21T12:11:10;6.90;;;4.50;;
23506;SDS011;11930;53.076;18.250;2022-08-21T12:13:58;5.10;;;4.32;;
23506;SDS011;11930;53.076;18.250;2022-08-21T12:16:41;6.03;;;4.57;;
23506;SDS011;11930;53.076;18.250;2022-08-21T12:19:40;7.28;;;4.38;;
23506;SDS011;11930;53.076;18.250;2022-08-21T12:22:49;5.22;;;3.78;;
23506;SDS011;11930;53.076;18.250;2022-08-21T12:25:43;6.68;;;3.78;;
23506;SDS011;11930;53.076;18.250;2022-08-21T12:28:22;5.20;;;3.85;;
23506;SDS011;11930;53.076;18.250;2022-08-21T12:30:54;6.22;;;4.10;;
23506;SDS011;11930;53.076;18.250;2022-08-21T12:36:12;4.53;;;3.40;;
23506;SDS011;11930;53.076;18.250;2022-08-21T12:38:51;4.70;;;3.80;;
23506;SDS011;11930;53.076;18.250;2022-08-21T12:41:34;5.05;;;3.22;;
23506;SDS011;11930;53.076;18.250;2022-08-21T12:44:41;6.80;;;3.28;;
23506;SDS011;11930;53.076;18.250;2022-08-21T12:50:19;4.32;;;3.00;;
23506;SDS011;11930;53.076;18.250;2022-08-21T12:52:51;4.40;;;2.90;;
23506;SDS011;11930;53.076;18.250;2022-08-21T12:55:30;5.35;;;3.30;;
23506;SDS011;11930;53.076;18.250;2022-08-21T12:57:58;3.45;;;2.78;;
23506;SDS011;11930;53.076;18.250;2022-08-21T13:00:26;4.90;;;2.78;;
23506;SDS011;11930;53.076;18.250;2022-08-21T13:03:03;5.10;;;3.00;;
23506;SDS011;11930;53.076;18.250;2022-08-21T13:05:34;5.53;;;3.00;;
23506;SDS011;11930;53.076;18.250;2022-08-21T13:08:12;5.22;;;2.75;;
23506;SDS011;11930;53.076;18.250;2022-08-21T13:13:50;4.45;;;2.60;;
23506;SDS011;11930;53.076;18.250;2022-08-21T13:16:22;5.63;;;2.83;;
23506;SDS011;11930;53.076;18.250;2022-08-21T13:21:30;4.25;;;2.35;;
23506;SDS011;11930;53.076;18.250;2022-08-21T13:24:11;3.17;;;2.13;;
23506;SDS011;11930;53.076;18.250;2022-08-21T13:26:57;3.20;;;2.40;;
23506;SDS011;11930;53.076;18.250;2022-08-21T13:29:30;3.70;;;2.30;;
23506;SDS011;11930;53.076;18.250;2022-08-21T13:32:00;3.40;;;2.60;;
23506;SDS011;11930;53.076;18.250;2022-08-21T13:34:30;3.90;;;2.88;;
23506;SDS011;11930;53.076;18.250;2022-08-21T13:37:06;4.15;;;2.55;;
23506;SDS011;11930;53.076;18.250;2022-08-21T13:39:39;5.25;;;2.63;;
23506;SDS011;11930;53.076;18.250;2022-08-21T13:42:08;3.85;;;2.63;;
23506;SDS011;11930;53.076;18.250;2022-08-21T13:44:42;7.30;;;2.90;;
23506;SDS011;11930;53.076;18.250;2022-08-21T13:47:15;5.03;;;2.50;;
23506;SDS011;11930;53.076;18.250;2022-08-21T13:49:51;3.30;;;2.45;;
23506;SDS011;11930;53.076;18.250;2022-08-21T13:52:25;4.55;;;2.90;;
23506;SDS011;11930;53.076;18.250;2022-08-21T13:54:55;4.40;;;2.80;;
23506;SDS011;11930;53.076;18.250;2022-08-21T13:57:26;3.97;;;2.53;;
23506;SDS011;11930;53.076;18.250;2022-08-21T14:02:43;4.82;;;2.70;;
23506;SDS011;11930;53.076;18.250;2022-08-21T14:05:18;3.83;;;2.50;;
23506;SDS011;11930;53.076;18.250;2022-08-21T14:08:07;6.13;;;2.67;;
23506;SDS011;11930;53.076;18.250;2022-08-21T14:10:46;6.32;;;2.80;;
23506;SDS011;11930;53.076;18.250;2022-08-21T14:16:10;4.78;;;2.60;;
23506;SDS011;11930;53.076;18.250;2022-08-21T14:18:45;4.60;;;2.42;;
23506;SDS011;11930;53.076;18.250;2022-08-21T14:21:41;3.63;;;2.70;;
23506;SDS011;11930;53.076;18.250;2022-08-21T14:24:25;4.63;;;2.80;;
23506;SDS011;11930;53.076;18.250;2022-08-21T14:26:55;3.55;;;2.55;;
23506;SDS011;11930;53.076;18.250;2022-08-21T14:29:25;5.47;;;3.00;;
23506;SDS011;11930;53.076;18.250;2022-08-21T14:31:57;4.78;;;2.55;;
23506;SDS011;11930;53.076;18.250;2022-08-21T14:34:26;3.83;;;2.08;;
23506;SDS011;11930;53.076;18.250;2022-08-21T14:36:54;3.00;;;1.90;;
23506;SDS011;11930;53.076;18.250;2022-08-21T14:39:20;5.38;;;2.50;;
23506;SDS011;11930;53.076;18.250;2022-08-21T14:41:46;4.18;;;2.38;;
23506;SDS011;11930;53.076;18.250;2022-08-21T14:44:14;3.15;;;2.20;;
23506;SDS011;11930;53.076;18.250;2022-08-21T14:46:42;4.43;;;2.30;;
23506;SDS011;11930;53.076;18.250;2022-08-21T14:49:12;3.65;;;2.33;;
23506;SDS011;11930;53.076;18.250;2022-08-21T14:51:39;4.25;;;2.58;;
23506;SDS011;11930;53.076;18.250;2022-08-21T14:54:07;22.02;;;16.17;;
23506;SDS011;11930;53.076;18.250;2022-08-21T14:56:34;4.65;;;2.70;;
23506;SDS011;11930;53.076;18.250;2022-08-21T14:59:02;3.15;;;2.70;;
23506;SDS011;11930;53.076;18.250;2022-08-21T15:01:39;3.58;;;2.33;;
23506;SDS011;11930;53.076;18.250;2022-08-21T15:04:05;4.07;;;2.40;;
23506;SDS011;11930;53.076;18.250;2022-08-21T15:06:31;4.32;;;2.50;;
23506;SDS011;11930;53.076;18.250;2022-08-21T15:09:02;4.30;;;2.20;;
23506;SDS011;11930;53.076;18.250;2022-08-21T15:11:32;2.80;;;2.42;;
23506;SDS011;11930;53.076;18.250;2022-08-21T15:14:00;3.40;;;2.28;;
23506;SDS011;11930;53.076;18.250;2022-08-21T15:16:29;3.88;;;2.90;;
23506;SDS011;11930;53.076;18.250;2022-08-21T15:18:58;5.25;;;2.75;;
23506;SDS011;11930;53.076;18.250;2022-08-21T15:21:24;4.25;;;2.40;;
23506;SDS011;11930;53.076;18.250;2022-08-21T15:23:50;4.15;;;2.50;;
23506;SDS011;11930;53.076;18.250;2022-08-21T15:26:16;2.72;;;2.00;;
23506;SDS011;11930;53.076;18.250;2022-08-21T15:28:43;3.28;;;2.50;;
23506;SDS011;11930;53.076;18.250;2022-08-21T15:31:09;3.45;;;2.30;;
23506;SDS011;11930;53.076;18.250;2022-08-21T15:33:35;2.53;;;2.03;;
23506;SDS011;11930;53.076;18.250;2022-08-21T15:36:01;3.30;;;2.40;;
23506;SDS011;11930;53.076;18.250;2022-08-21T15:38:27;3.10;;;2.30;;
23506;SDS011;11930;53.076;18.250;2022-08-21T15:41:08;3.60;;;2.53;;
23506;SDS011;11930;53.076;18.250;2022-08-21T15:43:35;3.92;;;2.45;;
23506;SDS011;11930;53.076;18.250;2022-08-21T15:46:07;3.60;;;2.65;;
23506;SDS011;11930;53.076;18.250;2022-08-21T15:48:39;4.15;;;2.40;;
23506;SDS011;11930;53.076;18.250;2022-08-21T15:51:05;4.18;;;2.58;;
23506;SDS011;11930;53.076;18.250;2022-08-21T15:53:33;4.03;;;2.45;;
23506;SDS011;11930;53.076;18.250;2022-08-21T15:56:04;3.35;;;2.40;;
23506;SDS011;11930;53.076;18.250;2022-08-21T15:58:31;3.88;;;2.58;;
23506;SDS011;11930;53.076;18.250;2022-08-21T16:00:58;3.75;;;2.35;;
23506;SDS011;11930;53.076;18.250;2022-08-21T16:03:35;3.03;;;2.40;;
23506;SDS011;11930;53.076;18.250;2022-08-21T16:06:01;4.20;;;2.78;;
23506;SDS011;11930;53.076;18.250;2022-08-21T16:08:27;4.03;;;2.65;;
23506;SDS011;11930;53.076;18.250;2022-08-21T16:10:54;3.47;;;2.70;;
23506;SDS011;11930;53.076;18.250;2022-08-21T16:13:27;3.70;;;2.78;;
23506;SDS011;11930;53.076;18.250;2022-08-21T16:16:02;4.47;;;2.80;;
23506;SDS011;11930;53.076;18.250;2022-08-21T16:18:28;3.33;;;2.50;;
23506;SDS011;11930;53.076;18.250;2022-08-21T16:20:54;4.15;;;2.97;;
23506;SDS011;11930;53.076;18.250;2022-08-21T16:26:31;4.10;;;2.97;;
23506;SDS011;11930;53.076;18.250;2022-08-21T16:29:03;4.03;;;2.85;;
23506;SDS011;11930;53.076;18.250;2022-08-21T16:31:39;5.10;;;3.28;;